createdAt,value
2023-02-09T00:01:32.979Z,97374.93
2023-02-09T00:04:02.945Z,97376.42
2023-02-09T00:06:33.480Z,97381.30
2023-02-09T00:09:03.708Z,97379.09
2023-02-09T00:11:51.658Z,97376.61
2023-02-09T00:14:22.303Z,97369.44
2023-02-09T00:16:52.363Z,97373.86
2023-02-09T00:19:22.579Z,97371.05
2023-02-09T00:21:51.428Z,97367.26
2023-02-09T00:24:20.483Z,97363.67
2023-02-09T00:26:49.544Z,97360.20
2023-02-09T00:29:20.469Z,97364.80
2023-02-09T00:31:49.624Z,97368.56
2023-02-09T00:34:19.824Z,97364.00
2023-02-09T00:36:48.504Z,97348.74
2023-02-09T00:39:17.191Z,97360.80
2023-02-09T00:42:03.931Z,97360.91
2023-02-09T00:44:32.956Z,97360.70
2023-02-09T00:47:02.453Z,97359.20
2023-02-09T00:49:31.764Z,97348.83
2023-02-09T00:52:00.620Z,97348.73
2023-02-09T00:54:29.220Z,97343.25
2023-02-09T00:56:59.381Z,97343.81
2023-02-09T00:59:28.108Z,97342.73
2023-02-09T01:01:57.877Z,97342.45
2023-02-09T01:04:26.690Z,97345.05
2023-02-09T01:06:55.418Z,97342.34
2023-02-09T01:09:24.077Z,97339.65
2023-02-09T01:11:52.684Z,97333.89
2023-02-09T01:14:21.296Z,97338.16
2023-02-09T01:16:49.977Z,97331.10
2023-02-09T01:19:18.650Z,97337.07
2023-02-09T01:21:48.845Z,97332.59
2023-02-09T01:24:17.671Z,97323.42
2023-02-09T01:26:47.076Z,97317.15
2023-02-09T01:29:18.212Z,97315.94
2023-02-09T01:31:48.220Z,97314.27
2023-02-09T01:34:19.328Z,97315.94
2023-02-09T01:36:48.553Z,97248.59
2023-02-09T01:39:17.383Z,97319.33
2023-02-09T01:41:45.970Z,97319.23
2023-02-09T01:44:17.771Z,97313.96
2023-02-09T01:46:46.733Z,97307.16
2023-02-09T01:51:37.910Z,97312.55
2023-02-09T01:54:12.624Z,97312.05
2023-02-09T01:56:43.947Z,97302.39
2023-02-09T01:59:12.917Z,97308.95
2023-02-09T02:01:43.917Z,97311.84
2023-02-09T02:04:12.785Z,97308.48
2023-02-09T02:06:41.942Z,97308.56
2023-02-09T02:09:16.610Z,97303.17
2023-02-09T02:11:48.672Z,97305.16
2023-02-09T02:14:32.220Z,97304.45
2023-02-09T02:17:23.555Z,97302.77
2023-02-09T02:20:22.287Z,97307.66
2023-02-09T02:23:15.559Z,97305.73
2023-02-09T02:25:51.462Z,97299.07
2023-02-09T02:28:44.712Z,97300.53
2023-02-09T02:31:40.660Z,97300.53
2023-02-09T02:34:30.780Z,97297.56
2023-02-09T02:37:11.158Z,97295.67
2023-02-09T02:39:59.221Z,97298.13
2023-02-09T02:42:52.355Z,97289.69
2023-02-09T02:45:26.687Z,97294.16
2023-02-09T02:48:14.966Z,97285.97
2023-02-09T02:50:50.732Z,97281.31
2023-02-09T02:53:21.472Z,97279.01
2023-02-09T02:55:51.352Z,97278.34
2023-02-09T02:58:23.385Z,97272.77
2023-02-09T03:00:55.318Z,97266.01
2023-02-09T03:03:31.398Z,97266.51
2023-02-09T03:06:02.710Z,97268.58
2023-02-09T03:08:33.816Z,97277.34
2023-02-09T03:11:02.867Z,97270.59
2023-02-09T03:13:40.216Z,97267.30
2023-02-09T03:16:23.637Z,97263.52
2023-02-09T03:19:16.708Z,97266.32
2023-02-09T03:22:01.122Z,97265.11
2023-02-09T03:24:36.761Z,97270.28
2023-02-09T03:27:20.906Z,97264.91
2023-02-09T03:29:52.815Z,97262.52
2023-02-09T03:32:23.680Z,97257.05
2023-02-09T03:34:53.129Z,97258.17
2023-02-09T03:37:21.888Z,97255.08
2023-02-09T03:39:51.025Z,97257.55
2023-02-09T03:42:20.000Z,97262.52
2023-02-09T03:44:48.906Z,97261.53
2023-02-09T03:47:20.663Z,97257.34
2023-02-09T03:49:49.449Z,97253.42
2023-02-09T03:52:18.705Z,97257.58
2023-02-09T03:54:48.180Z,97259.58
2023-02-09T03:57:17.090Z,97225.86
2023-02-09T03:59:46.535Z,97254.87
2023-02-09T04:02:15.679Z,97252.11
2023-02-09T04:04:44.656Z,97256.31
2023-02-09T04:07:16.760Z,97261.30
2023-02-09T04:09:45.533Z,97256.92
2023-02-09T04:12:23.237Z,97178.61
2023-02-09T04:14:55.002Z,97260.30
2023-02-09T04:17:24.166Z,97254.61
2023-02-09T04:19:52.921Z,97253.84
2023-02-09T04:22:21.851Z,97260.23
2023-02-09T04:24:50.820Z,97254.53
2023-02-09T04:27:19.467Z,97258.23
2023-02-09T04:29:48.364Z,97257.30
2023-02-09T04:32:17.411Z,97259.89
2023-02-09T04:34:46.350Z,97259.12
2023-02-09T04:37:17.762Z,97257.52
2023-02-09T04:39:47.187Z,97250.42
2023-02-09T04:42:16.076Z,97252.50
2023-02-09T04:44:44.956Z,97257.44
2023-02-09T04:47:13.961Z,97258.41
2023-02-09T04:49:44.781Z,97261.14
2023-02-09T04:52:15.382Z,97263.43
2023-02-09T04:54:46.155Z,97268.17
2023-02-09T04:57:32.893Z,97259.22
2023-02-09T05:00:06.207Z,97244.80
2023-02-09T05:02:36.796Z,97254.72
2023-02-09T05:05:06.195Z,97250.02
2023-02-09T05:07:35.148Z,97250.13
2023-02-09T05:10:04.085Z,97250.81
2023-02-09T05:12:33.090Z,97234.86
2023-02-09T05:15:05.416Z,97250.52
2023-02-09T05:17:37.021Z,97258.27
2023-02-09T05:20:06.419Z,97260.56
2023-02-09T05:22:37.049Z,97266.70
2023-02-09T05:25:12.078Z,97266.27
2023-02-09T05:27:44.466Z,97257.58
2023-02-09T05:30:21.840Z,97257.16
2023-02-09T05:32:53.601Z,97257.08
2023-02-09T05:35:28.185Z,97265.19
2023-02-09T05:38:13.432Z,97262.14
2023-02-09T05:40:45.130Z,97265.02
2023-02-09T05:43:18.712Z,97263.41
2023-02-09T05:45:54.135Z,97261.39
2023-02-09T05:48:44.334Z,97264.82
2023-02-09T05:51:30.960Z,97276.08
2023-02-09T05:54:15.538Z,97281.25
2023-02-09T05:57:11.219Z,97279.94
2023-02-09T05:59:48.572Z,97272.78
2023-02-09T06:02:27.175Z,97275.44
2023-02-09T06:05:03.192Z,97278.22
2023-02-09T06:07:39.183Z,97248.63
2023-02-09T06:10:20.682Z,97276.59
2023-02-09T06:13:10.269Z,97278.34
2023-02-09T06:15:39.528Z,97277.85
2023-02-09T06:18:31.776Z,97282.14
2023-02-09T06:24:14.842Z,97267.63
2023-02-09T06:27:09.687Z,97266.55
2023-02-09T06:29:53.923Z,97254.09
2023-02-09T06:39:13.959Z,97261.23
2023-02-09T06:45:16.562Z,97252.94
2023-02-09T06:48:27.520Z,97252.69
2023-02-09T06:59:58.280Z,97237.37
2023-02-09T07:02:46.816Z,97242.21
2023-02-09T07:05:53.671Z,97239.00
2023-02-09T07:33:52.384Z,97246.22
2023-02-09T07:36:30.797Z,97230.66
2023-02-09T07:39:05.726Z,97234.48
2023-02-09T07:42:03.139Z,97235.30
2023-02-09T07:48:17.059Z,97238.58
2023-02-09T07:50:51.283Z,97239.60
2023-02-09T07:56:43.926Z,97220.50
2023-02-09T07:59:41.957Z,97221.55
2023-02-09T08:06:09.139Z,97202.39
2023-02-09T08:06:19.456Z,97217.92
2023-02-09T08:08:56.048Z,97216.75
2023-02-09T08:11:58.402Z,97229.22
2023-02-09T08:14:44.747Z,97225.81
2023-02-09T08:17:35.645Z,97228.15
2023-02-09T08:20:15.668Z,97228.73
2023-02-09T08:23:50.372Z,97187.02
2023-02-09T08:25:55.813Z,97232.33
2023-02-09T08:28:58.238Z,97244.13
2023-02-09T08:34:32.265Z,97238.05
2023-02-09T08:37:24.543Z,97231.66
2023-02-09T08:39:59.312Z,97201.65
2023-02-09T08:42:33.012Z,97224.89
2023-02-09T08:45:12.923Z,97217.20
2023-02-09T08:54:20.922Z,97228.25
2023-02-09T09:03:29.295Z,97226.44
2023-02-09T09:06:35.018Z,97234.47
2023-02-09T09:12:07.713Z,97232.03
2023-02-09T09:14:42.108Z,97239.95
2023-02-09T09:20:20.683Z,97216.28
2023-02-09T09:22:53.350Z,97246.36
2023-02-09T09:28:52.385Z,97242.89
2023-02-09T09:31:53.782Z,97242.61
2023-02-09T09:34:22.841Z,97245.62
2023-02-09T09:36:58.001Z,97236.45
2023-02-09T09:39:39.472Z,97235.23
2023-02-09T09:42:15.583Z,97233.61
2023-02-09T09:44:49.178Z,97233.31
2023-02-09T09:47:23.186Z,97240.50
2023-02-09T10:53:22.005Z,97177.93
2023-02-09T10:55:53.885Z,97173.46
2023-02-09T10:58:29.882Z,97162.48
2023-02-09T11:01:22.159Z,97171.32
2023-02-09T11:04:05.784Z,97162.44
2023-02-09T11:06:57.360Z,97168.02
2023-02-09T11:09:38.715Z,97157.98
2023-02-09T11:12:12.160Z,97152.33
2023-02-09T11:14:43.851Z,97156.33
2023-02-09T11:17:38.397Z,97152.86
2023-02-09T11:20:29.953Z,97149.18
2023-02-09T11:23:16.543Z,97148.09
2023-02-09T11:25:51.126Z,97141.77
2023-02-09T11:28:28.359Z,97134.30
2023-02-09T11:31:06.177Z,97129.42
2023-02-09T11:34:00.630Z,97132.39
2023-02-09T11:36:55.756Z,97127.84
2023-02-09T11:39:32.218Z,97127.69
2023-02-09T11:42:28.369Z,97126.42
2023-02-09T11:45:24.706Z,97131.18
2023-02-09T11:48:33.683Z,97117.50
2023-02-09T11:51:17.857Z,97114.53
2023-02-09T11:54:07.342Z,97104.01
2023-02-09T11:56:56.498Z,97106.58
2023-02-09T12:09:53.529Z,97100.70
2023-02-09T12:12:50.063Z,97098.59
2023-02-09T12:15:37.019Z,97086.23
2023-02-09T12:18:29.458Z,97088.91
2023-02-09T12:21:01.488Z,97084.63
2023-02-09T12:23:43.400Z,97086.72
2023-02-09T12:26:18.092Z,97084.59
2023-02-09T12:28:49.558Z,97076.50
2023-02-09T12:31:32.354Z,97073.80
2023-02-09T12:34:22.818Z,97076.38
2023-02-09T12:37:00.538Z,97065.42
2023-02-09T12:39:31.604Z,97067.84
2023-02-09T12:42:13.651Z,97067.33
2023-02-09T12:44:58.257Z,97056.56
2023-02-09T12:47:44.945Z,97056.01
2023-02-09T12:50:47.718Z,97047.09
2023-02-09T12:53:37.120Z,97048.91
2023-02-09T12:59:25.702Z,97051.01
2023-02-09T13:05:33.974Z,97043.16
2023-02-09T13:08:31.166Z,97042.61
2023-02-09T13:11:21.548Z,97043.12
2023-02-09T13:13:57.176Z,97031.55
2023-02-09T13:16:36.683Z,96998.19
2023-02-09T13:19:20.678Z,97032.11
2023-02-09T13:22:04.980Z,97034.75
2023-02-09T13:24:48.956Z,97039.22
2023-02-09T13:30:49.451Z,97036.05
2023-02-09T13:38:05.944Z,97031.31
2023-02-09T13:40:23.897Z,97024.73
2023-02-09T13:46:30.709Z,97030.27
2023-02-09T13:58:12.582Z,97026.31
2023-02-09T14:04:36.780Z,97021.84
2023-02-09T14:07:34.005Z,97024.70
2023-02-09T14:10:24.859Z,97018.41
2023-02-09T14:13:06.707Z,96985.02
2023-02-09T14:15:58.955Z,97017.09
2023-02-09T14:18:52.896Z,97015.02
2023-02-09T14:21:38.315Z,97012.91
2023-02-09T14:24:41.249Z,97012.90
2023-02-09T14:31:10.014Z,97010.80
2023-02-09T14:33:48.952Z,97020.72
2023-02-09T14:36:42.987Z,97015.91
2023-02-09T14:52:15.899Z,97006.88
2023-02-09T14:55:31.729Z,97013.38
2023-02-09T14:58:35.787Z,97010.97
2023-02-09T15:07:21.806Z,97027.34
2023-02-09T15:13:27.796Z,97031.36
2023-02-09T15:16:15.534Z,97035.42
2023-02-09T15:22:07.397Z,97044.66
2023-02-09T15:25:00.931Z,97040.42
2023-02-09T15:30:51.162Z,97047.80
2023-02-09T15:33:27.469Z,97048.23
2023-02-09T15:36:06.474Z,97059.59
2023-02-09T15:38:41.117Z,97063.95
2023-02-09T15:41:38.755Z,97061.34
2023-02-09T15:44:54.473Z,97075.06
2023-02-09T15:47:42.205Z,97072.17
2023-02-09T15:50:49.535Z,97083.20
2023-02-09T15:57:44.508Z,97078.25
2023-02-09T16:00:05.052Z,97052.39
2023-02-09T16:06:06.084Z,97083.84
2023-02-09T16:08:48.783Z,97084.77
2023-02-09T16:12:00.904Z,97091.63
2023-02-09T16:14:25.868Z,97085.62
2023-02-09T16:17:12.429Z,97086.86
2023-02-09T16:19:55.350Z,97082.09
2023-02-09T16:22:28.966Z,97088.55
2023-02-09T16:24:59.763Z,97083.55
2023-02-09T16:27:36.683Z,97067.66
2023-02-09T16:30:11.589Z,97084.72
2023-02-09T16:32:40.567Z,97081.05
2023-02-09T16:35:16.972Z,97075.42
2023-02-09T16:38:06.275Z,97078.21
2023-02-09T16:40:40.529Z,97085.02
2023-02-09T16:43:22.848Z,97090.06
2023-02-09T16:46:03.399Z,97084.94
2023-02-09T16:48:29.112Z,97090.52
2023-02-09T16:51:05.636Z,97095.28
2023-02-09T16:53:48.913Z,97096.63
2023-02-09T16:56:23.748Z,97102.08
2023-02-09T16:58:53.356Z,97099.20
2023-02-09T17:01:26.742Z,97100.02
2023-02-09T17:03:57.897Z,97098.34
2023-02-09T17:06:30.049Z,97090.14
2023-02-09T17:09:07.606Z,97094.36
2023-02-09T17:11:39.554Z,97093.05
2023-02-09T17:14:11.059Z,97096.24
2023-02-09T17:16:44.914Z,97091.16
2023-02-09T17:19:21.786Z,97092.40
2023-02-09T17:22:06.377Z,97088.38
2023-02-09T17:24:45.752Z,97091.44
2023-02-09T17:27:31.197Z,97104.97
2023-02-09T17:33:10.383Z,97104.33
2023-02-09T17:38:29.655Z,97103.09
2023-02-09T17:41:03.716Z,97103.89
2023-02-09T17:43:44.123Z,97098.22
2023-02-09T17:46:32.978Z,97100.00
2023-02-09T17:49:20.206Z,97104.66
2023-02-09T17:51:57.692Z,97104.38
2023-02-09T17:54:47.386Z,97102.37
2023-02-09T17:57:31.148Z,97099.59
2023-02-09T18:03:47.307Z,97100.00
2023-02-09T18:06:21.646Z,97102.22
2023-02-09T18:14:50.983Z,97103.84
2023-02-09T18:17:23.263Z,97099.14
2023-02-09T18:20:18.425Z,97098.52
2023-02-09T18:26:20.866Z,97099.47
2023-02-09T18:38:53.194Z,97095.44
2023-02-09T18:50:12.247Z,97094.75
2023-02-09T18:56:14.874Z,97099.05
2023-02-09T18:59:04.389Z,97100.68
2023-02-09T19:01:46.046Z,97096.73
2023-02-09T19:04:26.435Z,97098.93
2023-02-09T19:07:24.998Z,97098.98
2023-02-09T19:10:20.445Z,97100.36
2023-02-09T19:12:57.471Z,97104.27
2023-02-09T19:18:40.468Z,97102.09
2023-02-09T19:21:11.582Z,97103.70
2023-02-09T19:24:14.576Z,97107.30
2023-02-09T19:26:44.691Z,97100.00
2023-02-09T19:29:30.765Z,97104.88
2023-02-09T19:35:02.808Z,97108.16
2023-02-09T19:40:17.953Z,97084.60
2023-02-09T19:46:22.919Z,97104.86
2023-02-09T19:49:28.977Z,97104.64
2023-02-09T19:58:15.946Z,97105.71
2023-02-09T20:01:08.672Z,97107.67
2023-02-09T20:03:59.428Z,97107.45
2023-02-09T20:06:45.447Z,97113.67
2023-02-09T20:09:56.214Z,97111.77
2023-02-09T20:19:09.213Z,97115.72
2023-02-09T20:22:09.365Z,97114.66
2023-02-09T20:24:30.741Z,97122.66
2023-02-09T20:30:29.637Z,97123.58
2023-02-09T20:33:31.395Z,97128.61
2023-02-09T20:42:15.327Z,97130.09
2023-02-09T20:51:46.296Z,97130.00
2023-02-09T20:57:40.844Z,97117.64
2023-02-09T21:00:17.646Z,97113.22
2023-02-09T21:08:53.689Z,97117.69
2023-02-09T21:15:34.046Z,97108.62
2023-02-09T21:17:53.773Z,97109.64
2023-02-09T21:26:57.616Z,97100.30
2023-02-09T21:32:55.112Z,97102.44
2023-02-09T21:35:44.782Z,97098.25
2023-02-09T22:03:59.080Z,97105.73
2023-02-09T22:06:30.214Z,97109.87
2023-02-09T22:09:00.756Z,97103.03
2023-02-09T22:11:29.413Z,97109.03
2023-02-09T22:16:49.342Z,97079.52
2023-02-09T22:19:29.770Z,97113.44
2023-02-09T22:22:00.747Z,97114.03
2023-02-09T22:24:40.263Z,97118.47
2023-02-09T22:27:17.373Z,97092.28
2023-02-09T22:29:49.235Z,97119.19
2023-02-09T22:32:23.521Z,97115.72
2023-02-09T22:35:05.331Z,97110.60
2023-02-09T22:37:38.653Z,97110.18
2023-02-09T22:40:10.258Z,97107.49
2023-02-09T22:42:39.277Z,97104.27
2023-02-09T22:45:08.835Z,97108.88
2023-02-09T22:47:37.966Z,97102.45
2023-02-09T22:50:08.120Z,97109.91
2023-02-09T22:52:38.507Z,97111.20
2023-02-09T22:55:12.995Z,97107.72
2023-02-09T22:57:44.680Z,97107.81
2023-02-09T23:00:19.503Z,97119.92
2023-02-09T23:02:49.032Z,97117.83
2023-02-09T23:05:21.691Z,97116.25
2023-02-09T23:07:50.612Z,97118.00
2023-02-09T23:10:20.280Z,97113.94
2023-02-09T23:12:50.102Z,97109.63
2023-02-09T23:15:20.825Z,97115.23
2023-02-09T23:17:49.595Z,97118.13
2023-02-09T23:20:19.092Z,97122.18
2023-02-09T23:22:49.308Z,97118.28
2023-02-09T23:25:18.240Z,97106.63
2023-02-09T23:27:47.071Z,97120.08
2023-02-09T23:30:17.248Z,97127.31
2023-02-09T23:32:46.112Z,97117.20
2023-02-09T23:35:15.119Z,97121.33
2023-02-09T23:37:46.570Z,97120.47
2023-02-09T23:40:15.446Z,97128.39
2023-02-09T23:42:45.943Z,97128.52
2023-02-09T23:45:16.335Z,97131.45
2023-02-09T23:47:45.377Z,97127.10
2023-02-09T23:50:15.773Z,97131.80
2023-02-09T23:55:26.914Z,97129.13
2023-02-09T23:57:55.004Z,97121.75
